sensor_id;sensor_type;location;lat;lon;timestamp;pressure;altitude;pressure_sealevel;temperature;humidity
46001;BME280;72226;48.272;11.180;2023-08-31T00:02:06;95351.72;;;13.14;83.73
46001;BME280;72226;48.272;11.180;2023-08-31T00:04:31;95351.63;;;13.22;82.82
46001;BME280;72226;48.272;11.180;2023-08-31T00:06:57;95346.34;;;13.26;82.07
46001;BME280;72226;48.272;11.180;2023-08-31T00:09:23;95355.69;;;13.29;82.07
46001;BME280;72226;48.272;11.180;2023-08-31T00:11:49;95347.78;;;13.48;80.83
46001;BME280;72226;48.272;11.180;2023-08-31T00:14:15;95352.19;;;13.40;80.86
46001;BME280;72226;48.272;11.180;2023-08-31T00:16:41;95342.88;;;13.26;81.78
46001;BME280;72226;48.272;11.180;2023-08-31T00:19:06;95348.69;;;13.28;82.26
46001;BME280;72226;48.272;11.180;2023-08-31T00:21:31;95348.56;;;13.24;82.73
46001;BME280;72226;48.272;11.180;2023-08-31T00:23:58;95353.28;;;13.15;82.71
46001;BME280;72226;48.272;11.180;2023-08-31T00:26:24;95356.19;;;13.10;83.70
46001;BME280;72226;48.272;11.180;2023-08-31T00:28:49;95351.16;;;13.33;81.89
46001;BME280;72226;48.272;11.180;2023-08-31T00:31:15;95354.31;;;13.10;83.39
46001;BME280;72226;48.272;11.180;2023-08-31T00:33:40;95353.66;;;13.26;82.11
46001;BME280;72226;48.272;11.180;2023-08-31T00:36:05;95357.31;;;13.09;83.09
46001;BME280;72226;48.272;11.180;2023-08-31T00:38:31;95362.72;;;12.96;83.63
46001;BME280;72226;48.272;11.180;2023-08-31T00:40:57;95359.00;;;12.89;84.02
46001;BME280;72226;48.272;11.180;2023-08-31T00:43:22;95356.97;;;12.98;83.56
46001;BME280;72226;48.272;11.180;2023-08-31T00:45:51;95357.78;;;12.98;83.32
46001;BME280;72226;48.272;11.180;2023-08-31T00:48:21;95349.03;;;13.01;83.69
46001;BME280;72226;48.272;11.180;2023-08-31T00:50:47;95349.25;;;13.09;82.70
46001;BME280;72226;48.272;11.180;2023-08-31T00:53:14;95355.97;;;13.15;82.42
46001;BME280;72226;48.272;11.180;2023-08-31T00:55:40;95350.91;;;13.01;83.81
46001;BME280;72226;48.272;11.180;2023-08-31T00:58:07;95355.97;;;13.02;84.23
46001;BME280;72226;48.272;11.180;2023-08-31T01:00:58;95353.06;;;12.95;84.22
46001;BME280;72226;48.272;11.180;2023-08-31T01:06:25;95354.06;;;12.91;85.27
46001;BME280;72226;48.272;11.180;2023-08-31T01:14:11;95352.94;;;12.92;85.45
46001;BME280;72226;48.272;11.180;2023-08-31T01:16:38;95352.59;;;12.81;85.68
46001;BME280;72226;48.272;11.180;2023-08-31T01:19:16;95357.22;;;12.81;86.52
46001;BME280;72226;48.272;11.180;2023-08-31T01:21:44;95357.63;;;12.83;86.63
46001;BME280;72226;48.272;11.180;2023-08-31T01:24:12;95362.59;;;12.81;86.81
46001;BME280;72226;48.272;11.180;2023-08-31T01:26:37;95372.22;;;12.82;86.86
46001;BME280;72226;48.272;11.180;2023-08-31T01:29:04;95368.97;;;12.76;87.80
46001;BME280;72226;48.272;11.180;2023-08-31T01:31:29;95372.22;;;12.82;88.10
46001;BME280;72226;48.272;11.180;2023-08-31T01:33:54;95372.69;;;12.84;88.55
46001;BME280;72226;48.272;11.180;2023-08-31T01:36:27;95378.94;;;12.88;88.24
46001;BME280;72226;48.272;11.180;2023-08-31T01:39:01;95393.28;;;12.79;89.07
46001;BME280;72226;48.272;11.180;2023-08-31T01:41:30;95390.38;;;12.72;90.29
46001;BME280;72226;48.272;11.180;2023-08-31T01:43:59;95396.53;;;12.73;90.21
46001;BME280;72226;48.272;11.180;2023-08-31T01:46:26;95400.66;;;12.70;89.31
46001;BME280;72226;48.272;11.180;2023-08-31T01:48:51;95402.81;;;12.77;89.06
46001;BME280;72226;48.272;11.180;2023-08-31T01:51:17;95406.81;;;12.71;88.58
46001;BME280;72226;48.272;11.180;2023-08-31T01:53:42;95399.34;;;12.76;88.49
46001;BME280;72226;48.272;11.180;2023-08-31T01:56:09;95410.00;;;12.85;87.58
46001;BME280;72226;48.272;11.180;2023-08-31T01:58:35;95410.94;;;12.89;87.96
46001;BME280;72226;48.272;11.180;2023-08-31T02:01:03;95413.25;;;12.91;87.84
46001;BME280;72226;48.272;11.180;2023-08-31T02:03:28;95417.66;;;12.95;87.69
46001;BME280;72226;48.272;11.180;2023-08-31T02:05:53;95421.91;;;12.96;88.16
46001;BME280;72226;48.272;11.180;2023-08-31T02:08:19;95423.03;;;12.95;88.13
46001;BME280;72226;48.272;11.180;2023-08-31T02:10:46;95424.72;;;13.00;88.15
46001;BME280;72226;48.272;11.180;2023-08-31T02:13:14;95433.81;;;12.95;88.50
46001;BME280;72226;48.272;11.180;2023-08-31T02:15:39;95425.38;;;12.97;88.70
46001;BME280;72226;48.272;11.180;2023-08-31T02:18:07;95432.56;;;12.93;89.56
46001;BME280;72226;48.272;11.180;2023-08-31T02:20:32;95425.38;;;12.97;89.36
46001;BME280;72226;48.272;11.180;2023-08-31T02:22:59;95424.03;;;13.03;89.22
46001;BME280;72226;48.272;11.180;2023-08-31T02:25:25;95424.72;;;13.00;89.66
46001;BME280;72226;48.272;11.180;2023-08-31T02:27:53;95433.69;;;13.04;89.55
46001;BME280;72226;48.272;11.180;2023-08-31T02:30:18;95439.41;;;13.02;89.76
46001;BME280;72226;48.272;11.180;2023-08-31T02:32:44;95441.31;;;13.02;90.47
46001;BME280;72226;48.272;11.180;2023-08-31T02:35:09;95434.34;;;13.01;90.21
46001;BME280;72226;48.272;11.180;2023-08-31T02:37:35;95437.50;;;13.03;90.32
46001;BME280;72226;48.272;11.180;2023-08-31T02:40:00;95449.84;;;13.04;89.32
46001;BME280;72226;48.272;11.180;2023-08-31T02:42:25;95448.63;;;13.01;89.73
46001;BME280;72226;48.272;11.180;2023-08-31T02:44:54;95444.34;;;13.00;89.95
46001;BME280;72226;48.272;11.180;2023-08-31T02:47:19;95446.34;;;13.03;89.81
46001;BME280;72226;48.272;11.180;2023-08-31T02:49:44;95432.00;;;12.99;90.59
46001;BME280;72226;48.272;11.180;2023-08-31T02:52:10;95430.66;;;13.06;89.86
46001;BME280;72226;48.272;11.180;2023-08-31T02:54:35;95431.81;;;13.05;90.38
46001;BME280;72226;48.272;11.180;2023-08-31T02:57:00;95422.47;;;13.02;90.11
46001;BME280;72226;48.272;11.180;2023-08-31T02:59:27;95420.22;;;13.04;90.23
46001;BME280;72226;48.272;11.180;2023-08-31T03:01:52;95420.34;;;12.95;91.76
46001;BME280;72226;48.272;11.180;2023-08-31T03:04:18;95423.59;;;13.01;91.29
46001;BME280;72226;48.272;11.180;2023-08-31T03:06:43;95422.47;;;13.02;91.34
46001;BME280;72226;48.272;11.180;2023-08-31T03:09:08;95417.66;;;13.08;90.97
46001;BME280;72226;48.272;11.180;2023-08-31T03:11:35;95412.41;;;13.11;90.58
46001;BME280;72226;48.272;11.180;2023-08-31T03:14:00;95424.16;;;13.07;91.52
46001;BME280;72226;48.272;11.180;2023-08-31T03:16:25;95426.41;;;13.05;91.47
46001;BME280;72226;48.272;11.180;2023-08-31T03:18:51;95432.97;;;13.40;89.77
46001;BME280;72226;48.272;11.180;2023-08-31T03:21:16;95444.53;;;13.41;88.59
46001;BME280;72226;48.272;11.180;2023-08-31T03:23:42;95447.13;;;13.37;88.59
46001;BME280;72226;48.272;11.180;2023-08-31T03:26:08;95451.78;;;13.28;89.48
46001;BME280;72226;48.272;11.180;2023-08-31T03:28:33;95459.72;;;13.12;89.98
46001;BME280;72226;48.272;11.180;2023-08-31T03:30:59;95455.69;;;13.06;90.90
46001;BME280;72226;48.272;11.180;2023-08-31T03:33:24;95463.75;;;13.06;91.28
46001;BME280;72226;48.272;11.180;2023-08-31T03:35:50;95457.03;;;13.12;91.09
46001;BME280;72226;48.272;11.180;2023-08-31T03:38:15;95466.31;;;13.02;91.39
46001;BME280;72226;48.272;11.180;2023-08-31T03:40:40;95457.09;;;12.91;91.69
46001;BME280;72226;48.272;11.180;2023-08-31T03:43:06;95464.41;;;12.91;92.49
46001;BME280;72226;48.272;11.180;2023-08-31T03:45:31;95473.53;;;13.11;90.48
46001;BME280;72226;48.272;11.180;2023-08-31T03:47:57;95467.47;;;13.14;90.17
46001;BME280;72226;48.272;11.180;2023-08-31T03:50:22;95472.28;;;13.08;90.24
46001;BME280;72226;48.272;11.180;2023-08-31T03:52:48;95472.84;;;13.14;90.01
46001;BME280;72226;48.272;11.180;2023-08-31T03:55:13;95478.34;;;13.17;89.08
46001;BME280;72226;48.272;11.180;2023-08-31T03:57:38;95480.91;;;13.01;90.57
46001;BME280;72226;48.272;11.180;2023-08-31T04:00:04;95479.13;;;13.06;90.58
46001;BME280;72226;48.272;11.180;2023-08-31T04:02:34;95486.63;;;13.12;90.23
46001;BME280;72226;48.272;11.180;2023-08-31T04:05:00;95481.44;;;12.95;91.07
46001;BME280;72226;48.272;11.180;2023-08-31T04:07:26;95482.00;;;12.88;91.73
46001;BME280;72226;48.272;11.180;2023-08-31T04:09:51;95490.53;;;12.90;92.29
46001;BME280;72226;48.272;11.180;2023-08-31T04:12:16;95491.41;;;12.94;91.25
46001;BME280;72226;48.272;11.180;2023-08-31T04:14:42;95493.28;;;12.82;92.65
46001;BME280;72226;48.272;11.180;2023-08-31T04:17:07;95496.22;;;12.89;92.06
46001;BME280;72226;48.272;11.180;2023-08-31T04:19:33;95501.28;;;12.90;91.82
46001;BME280;72226;48.272;11.180;2023-08-31T04:21:58;95511.50;;;12.97;91.56
46001;BME280;72226;48.272;11.180;2023-08-31T04:24:23;95505.41;;;12.88;91.75
46001;BME280;72226;48.272;11.180;2023-08-31T04:26:49;95508.59;;;13.02;90.87
46001;BME280;72226;48.272;11.180;2023-08-31T04:29:16;95513.09;;;12.77;92.49
46001;BME280;72226;48.272;11.180;2023-08-31T04:31:41;95508.28;;;12.70;93.69
46001;BME280;72226;48.272;11.180;2023-08-31T04:34:07;95514.81;;;12.82;92.07
46001;BME280;72226;48.272;11.180;2023-08-31T04:36:32;95511.66;;;12.79;91.29
46001;BME280;72226;48.272;11.180;2023-08-31T04:38:58;95522.31;;;12.76;91.88
46001;BME280;72226;48.272;11.180;2023-08-31T04:41:23;95519.16;;;12.74;91.29
46001;BME280;72226;48.272;11.180;2023-08-31T04:43:49;95525.06;;;12.67;93.47
46001;BME280;72226;48.272;11.180;2023-08-31T04:46:14;95525.47;;;12.57;94.22
46001;BME280;72226;48.272;11.180;2023-08-31T04:48:40;95523.22;;;12.59;94.19
46001;BME280;72226;48.272;11.180;2023-08-31T04:51:05;95526.91;;;12.75;91.32
46001;BME280;72226;48.272;11.180;2023-08-31T04:53:31;95538.53;;;12.67;92.92
46001;BME280;72226;48.272;11.180;2023-08-31T04:55:56;95541.22;;;12.67;93.22
46001;BME280;72226;48.272;11.180;2023-08-31T04:58:22;95546.41;;;12.72;91.87
46001;BME280;72226;48.272;11.180;2023-08-31T05:00:47;95545.63;;;12.72;91.40
46001;BME280;72226;48.272;11.180;2023-08-31T05:03:13;95550.59;;;12.61;92.67
46001;BME280;72226;48.272;11.180;2023-08-31T05:05:38;95559.19;;;12.75;92.01
46001;BME280;72226;48.272;11.180;2023-08-31T05:08:04;95545.28;;;12.73;92.79
46001;BME280;72226;48.272;11.180;2023-08-31T05:10:29;95562.84;;;12.92;91.08
46001;BME280;72226;48.272;11.180;2023-08-31T05:12:55;95557.72;;;12.99;91.17
46001;BME280;72226;48.272;11.180;2023-08-31T05:15:20;95563.13;;;13.11;89.76
46001;BME280;72226;48.272;11.180;2023-08-31T05:17:46;95566.78;;;13.28;88.66
46001;BME280;72226;48.272;11.180;2023-08-31T05:20:12;95569.00;;;13.13;89.83
46001;BME280;72226;48.272;11.180;2023-08-31T05:22:38;95559.66;;;13.11;90.38
46001;BME280;72226;48.272;11.180;2023-08-31T05:25:04;95559.19;;;13.09;91.55
46001;BME280;72226;48.272;11.180;2023-08-31T05:27:29;95564.34;;;13.01;92.47
46001;BME280;72226;48.272;11.180;2023-08-31T05:29:55;95565.84;;;13.11;91.29
46001;BME280;72226;48.272;11.180;2023-08-31T05:32:20;95562.78;;;13.13;92.51
46001;BME280;72226;48.272;11.180;2023-08-31T05:34:45;95572.91;;;13.16;93.64
46001;BME280;72226;48.272;11.180;2023-08-31T05:37:11;95570.94;;;13.25;93.28
46001;BME280;72226;48.272;11.180;2023-08-31T05:39:37;95563.94;;;13.57;90.98
46001;BME280;72226;48.272;11.180;2023-08-31T05:42:02;95572.13;;;13.61;90.28
46001;BME280;72226;48.272;11.180;2023-08-31T05:44:28;95572.47;;;13.59;90.41
46001;BME280;72226;48.272;11.180;2023-08-31T05:46:53;95575.66;;;13.98;87.33
46001;BME280;72226;48.272;11.180;2023-08-31T05:49:18;95584.06;;;13.84;87.13
46001;BME280;72226;48.272;11.180;2023-08-31T05:51:44;95576.31;;;13.70;87.63
46001;BME280;72226;48.272;11.180;2023-08-31T05:54:09;95582.59;;;13.75;88.58
46001;BME280;72226;48.272;11.180;2023-08-31T05:56:38;95580.25;;;13.85;89.03
46001;BME280;72226;48.272;11.180;2023-08-31T05:59:05;95579.03;;;13.95;87.42
46001;BME280;72226;48.272;11.180;2023-08-31T06:01:30;95588.34;;;13.73;87.38
46001;BME280;72226;48.272;11.180;2023-08-31T06:03:55;95590.69;;;13.87;86.78
46001;BME280;72226;48.272;11.180;2023-08-31T06:06:21;95584.16;;;13.88;88.13
46001;BME280;72226;48.272;11.180;2023-08-31T06:08:46;95586.22;;;13.91;87.11
46001;BME280;72226;48.272;11.180;2023-08-31T06:11:12;95571.28;;;14.18;86.09
46001;BME280;72226;48.272;11.180;2023-08-31T06:13:38;95568.34;;;14.11;86.69
46001;BME280;72226;48.272;11.180;2023-08-31T06:16:04;95591.16;;;14.01;85.21
46001;BME280;72226;48.272;11.180;2023-08-31T06:18:29;95587.88;;;14.08;85.31
46001;BME280;72226;48.272;11.180;2023-08-31T06:20:54;95588.44;;;13.77;87.51
46001;BME280;72226;48.272;11.180;2023-08-31T06:23:20;95592.63;;;13.99;86.79
46001;BME280;72226;48.272;11.180;2023-08-31T06:25:45;95593.06;;;14.13;85.98
46001;BME280;72226;48.272;11.180;2023-08-31T06:28:11;95591.81;;;14.23;85.45
46001;BME280;72226;48.272;11.180;2023-08-31T06:30:37;95600.13;;;14.18;85.06
46001;BME280;72226;48.272;11.180;2023-08-31T06:33:03;95594.63;;;14.26;84.44
46001;BME280;72226;48.272;11.180;2023-08-31T06:35:29;95599.47;;;14.33;84.54
46001;BME280;72226;48.272;11.180;2023-08-31T06:37:54;95606.66;;;14.53;81.79
46001;BME280;72226;48.272;11.180;2023-08-31T06:40:21;95612.25;;;14.48;82.47
46001;BME280;72226;48.272;11.180;2023-08-31T06:42:46;95611.28;;;14.93;81.65
46001;BME280;72226;48.272;11.180;2023-08-31T06:45:12;95611.25;;;15.49;77.18
46001;BME280;72226;48.272;11.180;2023-08-31T06:47:37;95618.50;;;15.61;75.22
46001;BME280;72226;48.272;11.180;2023-08-31T06:50:02;95625.09;;;15.76;75.13
46001;BME280;72226;48.272;11.180;2023-08-31T06:52:28;95621.97;;;15.74;74.86
46001;BME280;72226;48.272;11.180;2023-08-31T06:54:54;95624.44;;;15.51;74.02
46001;BME280;72226;48.272;11.180;2023-08-31T06:57:24;95627.28;;;15.42;75.46
46001;BME280;72226;48.272;11.180;2023-08-31T06:59:49;95632.00;;;15.45;75.20
46001;BME280;72226;48.272;11.180;2023-08-31T07:02:14;95643.47;;;15.26;75.92
46001;BME280;72226;48.272;11.180;2023-08-31T07:04:40;95633.69;;;15.22;75.63
46001;BME280;72226;48.272;11.180;2023-08-31T07:07:06;95637.06;;;15.19;76.37
46001;BME280;72226;48.272;11.180;2023-08-31T07:09:31;95640.25;;;15.09;76.34
46001;BME280;72226;48.272;11.180;2023-08-31T07:11:56;95642.31;;;15.27;75.93
46001;BME280;72226;48.272;11.180;2023-08-31T07:14:23;95644.53;;;15.10;75.92
46001;BME280;72226;48.272;11.180;2023-08-31T07:16:48;95646.00;;;15.07;75.63
46001;BME280;72226;48.272;11.180;2023-08-31T07:19:14;95640.59;;;15.07;75.34
46001;BME280;72226;48.272;11.180;2023-08-31T07:21:39;95639.53;;;15.24;75.39
46001;BME280;72226;48.272;11.180;2023-08-31T07:24:05;95640.97;;;15.49;75.17
46001;BME280;72226;48.272;11.180;2023-08-31T07:26:30;95642.59;;;15.94;72.84
46001;BME280;72226;48.272;11.180;2023-08-31T07:28:55;95635.75;;;16.32;71.14
46001;BME280;72226;48.272;11.180;2023-08-31T07:31:21;95637.72;;;16.67;67.84
46001;BME280;72226;48.272;11.180;2023-08-31T07:33:46;95650.09;;;16.68;66.91
46001;BME280;72226;48.272;11.180;2023-08-31T07:36:12;95658.91;;;17.16;65.77
46001;BME280;72226;48.272;11.180;2023-08-31T07:38:37;95661.34;;;17.21;64.85
46001;BME280;72226;48.272;11.180;2023-08-31T07:41:02;95662.38;;;16.14;68.36
46001;BME280;72226;48.272;11.180;2023-08-31T07:43:29;95655.28;;;16.41;69.08
46001;BME280;72226;48.272;11.180;2023-08-31T07:45:55;95666.00;;;16.54;67.33
46001;BME280;72226;48.272;11.180;2023-08-31T07:48:21;95665.94;;;16.82;65.87
46001;BME280;72226;48.272;11.180;2023-08-31T07:50:47;95658.66;;;16.86;65.32
46001;BME280;72226;48.272;11.180;2023-08-31T07:53:13;95651.22;;;17.18;64.72
46001;BME280;72226;48.272;11.180;2023-08-31T07:55:39;95654.03;;;17.64;63.31
46001;BME280;72226;48.272;11.180;2023-08-31T07:58:04;95665.84;;;18.18;62.38
46001;BME280;72226;48.272;11.180;2023-08-31T08:00:30;95658.19;;;18.46;59.13
46001;BME280;72226;48.272;11.180;2023-08-31T08:02:55;95666.00;;;18.52;58.88
46001;BME280;72226;48.272;11.180;2023-08-31T08:05:21;95678.00;;;18.01;59.46
46001;BME280;72226;48.272;11.180;2023-08-31T08:07:46;95666.25;;;17.74;59.25
46001;BME280;72226;48.272;11.180;2023-08-31T08:10:12;95684.78;;;17.52;61.71
46001;BME280;72226;48.272;11.180;2023-08-31T08:12:42;95685.59;;;17.33;59.97
46001;BME280;72226;48.272;11.180;2023-08-31T08:15:12;95692.44;;;17.27;61.21
46001;BME280;72226;48.272;11.180;2023-08-31T08:17:37;95684.88;;;17.17;62.00
46001;BME280;72226;48.272;11.180;2023-08-31T08:20:06;95683.72;;;17.18;62.07
46001;BME280;72226;48.272;11.180;2023-08-31T08:22:32;95692.44;;;17.27;61.67
46001;BME280;72226;48.272;11.180;2023-08-31T08:24:57;95697.81;;;17.08;62.11
46001;BME280;72226;48.272;11.180;2023-08-31T08:27:22;95699.81;;;17.11;63.71
46001;BME280;72226;48.272;11.180;2023-08-31T08:29:48;95704.69;;;16.86;64.30
46001;BME280;72226;48.272;11.180;2023-08-31T08:32:13;95700.34;;;16.81;63.94
46001;BME280;72226;48.272;11.180;2023-08-31T08:34:39;95705.75;;;16.50;64.54
46001;BME280;72226;48.272;11.180;2023-08-31T08:37:04;95706.06;;;15.85;66.18
46001;BME280;72226;48.272;11.180;2023-08-31T08:39:30;95708.13;;;15.75;68.26
46001;BME280;72226;48.272;11.180;2023-08-31T08:41:57;95703.00;;;15.86;67.55
46001;BME280;72226;48.272;11.180;2023-08-31T08:44:24;95712.31;;;15.73;66.80
46001;BME280;72226;48.272;11.180;2023-08-31T08:46:51;95720.44;;;15.61;68.22
46001;BME280;72226;48.272;11.180;2023-08-31T08:49:18;95713.94;;;15.49;68.70
46001;BME280;72226;48.272;11.180;2023-08-31T08:51:44;95714.47;;;15.67;68.69
46001;BME280;72226;48.272;11.180;2023-08-31T08:54:12;95711.44;;;15.69;67.48
46001;BME280;72226;48.272;11.180;2023-08-31T08:56:38;95714.63;;;15.87;68.21
46001;BME280;72226;48.272;11.180;2023-08-31T08:59:03;95728.16;;;16.03;67.27
46001;BME280;72226;48.272;11.180;2023-08-31T09:01:29;95727.84;;;16.20;66.67
46001;BME280;72226;48.272;11.180;2023-08-31T09:03:54;95724.19;;;16.28;65.52
46001;BME280;72226;48.272;11.180;2023-08-31T09:06:20;95727.06;;;16.51;63.90
46001;BME280;72226;48.272;11.180;2023-08-31T09:08:53;95728.72;;;16.40;65.15
46001;BME280;72226;48.272;11.180;2023-08-31T09:11:22;95721.28;;;16.53;64.44
46001;BME280;72226;48.272;11.180;2023-08-31T09:13:49;95728.13;;;16.78;62.30
46001;BME280;72226;48.272;11.180;2023-08-31T09:16:28;95730.88;;;16.66;61.43
46001;BME280;72226;48.272;11.180;2023-08-31T09:18:55;95732.28;;;16.60;62.28
46001;BME280;72226;48.272;11.180;2023-08-31T09:21:21;95730.47;;;16.64;62.81
46001;BME280;72226;48.272;11.180;2023-08-31T09:23:59;95734.75;;;16.33;63.30
46001;BME280;72226;48.272;11.180;2023-08-31T09:26:24;95739.72;;;16.15;64.18
46001;BME280;72226;48.272;11.180;2023-08-31T09:28:49;95737.69;;;16.12;65.12
46001;BME280;72226;48.272;11.180;2023-08-31T09:31:15;95737.69;;;16.12;66.16
46001;BME280;72226;48.272;11.180;2023-08-31T09:33:50;95729.28;;;16.02;67.45
46001;BME280;72226;48.272;11.180;2023-08-31T09:36:15;95737.72;;;15.84;68.00
46001;BME280;72226;48.272;11.180;2023-08-31T09:38:42;95739.72;;;15.87;68.70
46001;BME280;72226;48.272;11.180;2023-08-31T09:41:08;95732.53;;;15.79;68.41
46001;BME280;72226;48.272;11.180;2023-08-31T09:43:34;95735.94;;;15.76;64.94
46001;BME280;72226;48.272;11.180;2023-08-31T09:46:00;95741.16;;;15.69;66.68
46001;BME280;72226;48.272;11.180;2023-08-31T09:48:28;95735.69;;;15.81;67.31
46001;BME280;72226;48.272;11.180;2023-08-31T09:50:55;95747.56;;;15.77;68.32
46001;BME280;72226;48.272;11.180;2023-08-31T09:53:21;95752.41;;;15.99;67.92
46001;BME280;72226;48.272;11.180;2023-08-31T09:55:47;95748.91;;;15.98;68.00
46001;BME280;72226;48.272;11.180;2023-08-31T09:58:20;95752.25;;;16.08;68.30
46001;BME280;72226;48.272;11.180;2023-08-31T10:00:46;95747.53;;;16.05;69.13
46001;BME280;72226;48.272;11.180;2023-08-31T10:03:14;95747.00;;;16.15;68.37
46001;BME280;72226;48.272;11.180;2023-08-31T10:05:42;95744.88;;;16.36;67.27
46001;BME280;72226;48.272;11.180;2023-08-31T10:08:08;95752.47;;;16.47;66.74
46001;BME280;72226;48.272;11.180;2023-08-31T10:10:34;95759.56;;;16.51;65.10
46001;BME280;72226;48.272;11.180;2023-08-31T10:13:00;95754.91;;;16.52;65.34
46001;BME280;72226;48.272;11.180;2023-08-31T10:15:31;95753.31;;;16.51;65.11
46001;BME280;72226;48.272;11.180;2023-08-31T10:17:59;95757.16;;;16.65;64.83
46001;BME280;72226;48.272;11.180;2023-08-31T10:20:25;95760.75;;;16.70;64.81
46001;BME280;72226;48.272;11.180;2023-08-31T10:22:55;95763.03;;;16.67;65.54
46001;BME280;72226;48.272;11.180;2023-08-31T10:25:23;95753.84;;;16.56;67.39
46001;BME280;72226;48.272;11.180;2023-08-31T10:27:48;95737.44;;;16.65;67.20
46001;BME280;72226;48.272;11.180;2023-08-31T10:38:16;95749.09;;;16.81;67.81
46001;BME280;72226;48.272;11.180;2023-08-31T10:40:41;95749.56;;;17.03;64.33
46001;BME280;72226;48.272;11.180;2023-08-31T10:43:16;95761.78;;;17.13;63.60
46001;BME280;72226;48.272;11.180;2023-08-31T10:45:45;95764.94;;;16.99;63.68
46001;BME280;72226;48.272;11.180;2023-08-31T10:48:11;95756.09;;;17.02;64.58
46001;BME280;72226;48.272;11.180;2023-08-31T10:50:45;95758.28;;;17.12;62.45
46001;BME280;72226;48.272;11.180;2023-08-31T10:53:12;95746.75;;;17.34;61.89
46001;BME280;72226;48.272;11.180;2023-08-31T10:55:50;95746.53;;;17.59;60.64
46001;BME280;72226;48.272;11.180;2023-08-31T10:58:17;95746.44;;;17.75;59.42
46001;BME280;72226;48.272;11.180;2023-08-31T11:00:52;95744.94;;;17.97;58.92
46001;BME280;72226;48.272;11.180;2023-08-31T11:03:18;95749.94;;;18.14;58.69
46001;BME280;72226;48.272;11.180;2023-08-31T11:05:53;95746.28;;;18.07;56.84
46001;BME280;72226;48.272;11.180;2023-08-31T11:08:22;95742.75;;;17.83;55.35
46001;BME280;72226;48.272;11.180;2023-08-31T11:10:48;95739.66;;;18.04;55.72
46001;BME280;72226;48.272;11.180;2023-08-31T11:13:18;95748.28;;;18.10;55.81
46001;BME280;72226;48.272;11.180;2023-08-31T11:15:45;95746.66;;;17.66;57.61
46001;BME280;72226;48.272;11.180;2023-08-31T11:18:11;95747.59;;;17.74;58.18
46001;BME280;72226;48.272;11.180;2023-08-31T11:20:37;95738.75;;;17.77;57.53
46001;BME280;72226;48.272;11.180;2023-08-31T11:23:03;95746.53;;;17.78;57.20
46001;BME280;72226;48.272;11.180;2023-08-31T11:25:30;95750.06;;;17.63;57.23
46001;BME280;72226;48.272;11.180;2023-08-31T11:28:00;95749.94;;;17.56;58.81
46001;BME280;72226;48.272;11.180;2023-08-31T11:30:28;95744.72;;;17.47;58.09
46001;BME280;72226;48.272;11.180;2023-08-31T11:32:54;95742.72;;;17.64;58.58
46001;BME280;72226;48.272;11.180;2023-08-31T11:35:23;95740.06;;;17.67;58.29
46001;BME280;72226;48.272;11.180;2023-08-31T11:37:51;95748.75;;;17.92;57.89
46001;BME280;72226;48.272;11.180;2023-08-31T11:40:17;95752.75;;;17.98;56.57
46001;BME280;72226;48.272;11.180;2023-08-31T11:42:43;95746.06;;;18.15;56.10
46001;BME280;72226;48.272;11.180;2023-08-31T11:45:10;95742.16;;;18.13;56.37
46001;BME280;72226;48.272;11.180;2023-08-31T11:47:37;95751.63;;;18.22;57.38
46001;BME280;72226;48.272;11.180;2023-08-31T11:50:05;95749.97;;;17.95;58.18
46001;BME280;72226;48.272;11.180;2023-08-31T11:52:32;95748.16;;;18.02;58.08
46001;BME280;72226;48.272;11.180;2023-08-31T11:54:57;95754.19;;;17.76;56.64
46001;BME280;72226;48.272;11.180;2023-08-31T11:57:26;95763.53;;;17.40;58.49
46001;BME280;72226;48.272;11.180;2023-08-31T11:59:52;95754.75;;;17.47;59.70
46001;BME280;72226;48.272;11.180;2023-08-31T12:02:20;95757.06;;;17.45;60.90
46001;BME280;72226;48.272;11.180;2023-08-31T12:04:46;95757.72;;;17.57;61.87
46001;BME280;72226;48.272;11.180;2023-08-31T12:07:16;95760.66;;;17.88;59.41
46001;BME280;72226;48.272;11.180;2023-08-31T12:09:42;95763.25;;;17.65;59.10
46001;BME280;72226;48.272;11.180;2023-08-31T12:12:10;95769.69;;;17.56;59.57
46001;BME280;72226;48.272;11.180;2023-08-31T12:14:37;95761.06;;;17.51;59.16
46001;BME280;72226;48.272;11.180;2023-08-31T12:17:07;95761.19;;;17.58;58.74
46001;BME280;72226;48.272;11.180;2023-08-31T12:19:36;95761.97;;;17.58;58.08
46001;BME280;72226;48.272;11.180;2023-08-31T12:22:02;95755.44;;;17.60;57.56
46001;BME280;72226;48.272;11.180;2023-08-31T12:24:27;95764.22;;;17.72;57.45
46001;BME280;72226;48.272;11.180;2023-08-31T12:26:53;95762.88;;;18.01;56.44
46001;BME280;72226;48.272;11.180;2023-08-31T12:29:22;95769.97;;;18.29;56.22
46001;BME280;72226;48.272;11.180;2023-08-31T12:31:48;95760.31;;;18.32;54.57
46001;BME280;72226;48.272;11.180;2023-08-31T12:34:15;95771.34;;;18.42;55.16
46001;BME280;72226;48.272;11.180;2023-08-31T12:36:40;95770.94;;;18.40;53.66
46001;BME280;72226;48.272;11.180;2023-08-31T12:39:09;95778.03;;;17.83;53.38
46001;BME280;72226;48.272;11.180;2023-08-31T12:41:39;95776.59;;;17.89;54.22
46001;BME280;72226;48.272;11.180;2023-08-31T12:44:08;95776.44;;;18.01;55.73
46001;BME280;72226;48.272;11.180;2023-08-31T12:46:33;95776.84;;;18.03;55.06
46001;BME280;72226;48.272;11.180;2023-08-31T12:49:00;95774.44;;;17.98;55.17
46001;BME280;72226;48.272;11.180;2023-08-31T12:51:26;95771.84;;;18.06;56.24
46001;BME280;72226;48.272;11.180;2023-08-31T12:53:52;95776.34;;;18.17;56.12
46001;BME280;72226;48.272;11.180;2023-08-31T12:56:17;95774.19;;;18.27;55.21
46001;BME280;72226;48.272;11.180;2023-08-31T12:58:51;95773.28;;;18.42;52.88
46001;BME280;72226;48.272;11.180;2023-08-31T13:01:17;95773.66;;;18.40;53.37
46001;BME280;72226;48.272;11.180;2023-08-31T13:03:43;95777.84;;;18.15;53.83